Time;durP1;ratioP1;P1;durP2;ratioP2;P2;SDS_P1;SDS_P2;PMS_P1;PMS_P2;Temp;Humidity;BMP_temperature;BMP_pressure;BME280_temperature;BME280_humidity;BME280_pressure;Samples;Min_cycle;Max_cycle;Signal;HPM_P1;HPM_P2
2022/01/24 00:00:55;;;;;;;0.70;0.70;;;-4.90;95.30;;;;;;5067888;28;20181;-71
2022/01/24 00:03:21;;;;;;;0.50;0.50;;;-4.90;95.50;;;;;;5076447;28;20570;-73
2022/01/24 00:05:47;;;;;;;0.63;0.63;;;-4.80;95.80;;;;;;5061185;28;20194;-72
2022/01/24 00:08:13;;;;;;;0.40;0.37;;;-4.90;95.70;;;;;;5064104;28;20191;-73
2022/01/24 00:10:40;;;;;;;1.03;1.03;;;-4.90;95.70;;;;;;5073731;28;20181;-73
2022/01/24 00:18:25;;;;;;;0.83;0.80;;;-4.80;95.70;;;;;;5065108;28;20218;-73
2022/01/24 00:26:43;;;;;;;0.63;0.63;;;-4.70;95.60;;;;;;5067844;28;20245;-73
2022/01/24 00:29:05;;;;;;;0.30;0.30;;;-4.60;95.30;;;;;;5067090;28;20194;-73
2022/01/24 00:31:31;;;;;;;0.60;0.60;;;-4.60;95.10;;;;;;5061519;28;20876;-73
2022/01/24 00:33:56;;;;;;;1.23;0.93;;;-4.60;94.90;;;;;;5085405;28;20671;-73
2022/01/24 00:36:22;;;;;;;1.07;0.70;;;-4.60;94.90;;;;;;5064854;28;20180;-73
2022/01/24 00:38:48;;;;;;;1.20;0.63;;;-4.60;94.80;;;;;;5070473;28;20218;-73
2022/01/24 00:41:16;;;;;;;4.93;0.93;;;-4.60;94.70;;;;;;5066229;28;20676;-73
2022/01/24 00:46:33;;;;;;;0.77;0.77;;;-4.60;94.60;;;;;;5067558;28;20183;-73
2022/01/24 00:56:53;;;;;;;0.93;0.93;;;;;;;;;;5063280;28;20670;-73
2022/01/24 00:59:19;;;;;;;0.87;0.73;;;-4.60;94.30;;;;;;5066339;28;20222;-73
2022/01/24 01:01:45;;;;;;;1.10;1.10;;;-4.60;94.30;;;;;;5076552;28;20178;-73
2022/01/24 01:04:10;;;;;;;0.33;0.33;;;-4.60;94.20;;;;;;5078296;28;20239;-72
2022/01/24 01:06:39;;;;;;;0.60;0.60;;;-4.60;94.20;;;;;;5069499;28;20251;-72
2022/01/24 01:20:02;;;;;;;0.67;0.67;;;-4.60;93.80;;;;;;5071924;28;20193;-72
2022/01/24 01:22:28;;;;;;;0.40;0.40;;;-4.60;93.70;;;;;;5071769;28;20193;-72
2022/01/24 01:24:56;;;;;;;1.43;1.30;;;-4.60;93.80;;;;;;5077721;28;20192;-73
2022/01/24 01:27:32;;;;;;;1.07;0.77;;;-4.60;93.70;;;;;;5070069;28;20263;-72
2022/01/24 01:30:04;;;;;;;0.60;0.60;;;-4.60;93.80;;;;;;5074053;28;20182;-71
2022/01/24 01:35:45;;;;;;;1.90;1.80;;;-4.50;93.70;;;;;;5070887;28;20691;-72
2022/01/24 01:54:52;;;;;;;0.70;0.70;;;-4.80;94.00;;;;;;5007282;28;20191;-73
2022/01/24 01:57:21;;;;;;;1.20;0.90;;;-4.80;93.90;;;;;;5012104;28;20293;-73
2022/01/24 01:59:47;;;;;;;0.57;0.57;;;-4.80;94.00;;;;;;5015498;28;20675;-72
2022/01/24 02:02:13;;;;;;;0.83;0.83;;;-4.80;94.20;;;;;;5006381;28;20192;-72
2022/01/24 02:04:40;;;;;;;0.67;0.67;;;-4.80;94.10;;;;;;5012640;28;20197;-72
2022/01/24 02:07:12;;;;;;;1.23;1.10;;;-4.80;94.10;;;;;;5003292;28;20242;-72
2022/01/24 02:09:40;;;;;;;1.07;0.97;;;-4.90;94.20;;;;;;5008722;28;20197;-72
2022/01/24 02:12:07;;;;;;;1.20;1.20;;;-4.90;94.20;;;;;;5006850;28;20192;-73
2022/01/24 02:14:37;;;;;;;0.40;0.40;;;-4.90;94.20;;;;;;5015133;28;20297;-73
2022/01/24 02:17:09;;;;;;;12.43;1.07;;;-4.90;94.30;;;;;;5054470;28;20186;-72
2022/01/24 02:25:01;;;;;;;0.80;0.80;;;-4.90;94.70;;;;;;5073006;28;20189;-72
2022/01/24 02:27:40;;;;;;;1.00;1.00;;;-4.90;94.80;;;;;;5068405;28;20804;-72
2022/01/24 02:30:26;;;;;;;1.20;1.10;;;-4.90;94.80;;;;;;5058546;28;20213;-72
2022/01/24 02:32:51;;;;;;;1.60;0.73;;;-4.90;94.80;;;;;;5070028;28;20231;-72
2022/01/24 02:35:17;;;;;;;1.70;0.60;;;-4.90;94.80;;;;;;5074249;28;20185;-72
2022/01/24 02:37:43;;;;;;;4.63;1.00;;;-4.80;94.80;;;;;;5060706;28;20211;-73
2022/01/24 02:40:16;;;;;;;0.70;0.70;;;-4.70;94.70;;;;;;5069783;28;20175;-73
2022/01/24 02:53:34;;;;;;;0.50;0.50;;;-4.70;94.10;;;;;;5073062;28;20315;-73
2022/01/24 02:56:00;;;;;;;0.97;0.97;;;-4.70;93.80;;;;;;5070029;28;20187;-72
2022/01/24 02:58:26;;;;;;;2.53;2.33;;;-4.70;93.90;;;;;;5066246;28;20272;-74
2022/01/24 03:00:53;;;;;;;1.87;1.87;;;-4.70;93.90;;;;;;5076398;28;20709;-73
2022/01/24 03:03:19;;;;;;;0.87;0.87;;;-4.70;94.00;;;;;;5066421;28;20572;-72
2022/01/24 03:05:44;;;;;;;1.17;1.07;;;-4.60;93.90;;;;;;5065102;28;20194;-71
2022/01/24 03:08:12;;;;;;;0.30;0.30;;;-4.70;93.80;;;;;;5068074;28;20644;-71
2022/01/24 03:10:44;;;;;;;4.57;0.97;;;-4.70;94.00;;;;;;5066942;28;20646;-72
2022/01/24 03:15:53;;;;;;;0.60;0.60;;;-4.70;94.10;;;;;;5071853;28;20181;-72
2022/01/24 03:18:20;;;;;;;1.07;1.07;;;-4.70;94.10;;;;;;5070701;28;20214;-71
2022/01/24 03:20:46;;;;;;;1.23;1.03;;;-4.70;94.10;;;;;;5069871;28;20183;-72
2022/01/24 03:23:18;;;;;;;0.93;0.93;;;-4.70;94.10;;;;;;5068922;28;20186;-72
2022/01/24 03:25:44;;;;;;;2.67;1.00;;;-4.70;94.20;;;;;;5074017;28;20186;-72
2022/01/24 03:28:10;;;;;;;0.57;0.57;;;-4.70;94.20;;;;;;5068558;28;20196;-72
2022/01/24 03:30:37;;;;;;;0.80;0.77;;;-4.70;94.10;;;;;;5065888;28;20190;-72
2022/01/24 03:33:04;;;;;;;0.50;0.50;;;-4.70;94.10;;;;;;5072200;28;20275;-72
2022/01/24 03:35:31;;;;;;;2.90;0.97;;;-4.60;94.00;;;;;;5074379;28;20684;-72
2022/01/24 03:37:57;;;;;;;0.40;0.40;;;-4.60;93.90;;;;;;5072458;28;20211;-72
2022/01/24 03:40:22;;;;;;;1.00;1.00;;;-4.60;94.00;;;;;;5059537;28;20194;-72
2022/01/24 03:42:49;;;;;;;1.03;0.57;;;-4.60;93.90;;;;;;5073480;28;20691;-72
2022/01/24 03:45:16;;;;;;;1.37;1.27;;;-4.60;94.00;;;;;;5067221;28;20182;-72
2022/01/24 03:47:55;;;;;;;1.27;0.90;;;-4.60;94.00;;;;;;5069656;28;20214;-72
2022/01/24 03:50:21;;;;;;;0.83;0.83;;;-4.50;93.90;;;;;;5067928;28;20330;-72
2022/01/24 03:52:47;;;;;;;0.30;0.30;;;-4.50;93.90;;;;;;5072986;28;20180;-72
2022/01/24 03:55:13;;;;;;;0.90;0.90;;;-4.40;93.70;;;;;;5072898;28;20185;-72
2022/01/24 03:57:39;;;;;;;1.50;0.47;;;-4.30;93.70;;;;;;5070319;28;20203;-72
2022/01/24 04:00:07;;;;;;;0.60;0.60;;;-4.30;93.50;;;;;;5065865;28;20673;-72
2022/01/24 04:02:33;;;;;;;1.07;0.63;;;-4.20;93.30;;;;;;5067262;28;20183;-72
2022/01/24 04:04:59;;;;;;;2.13;0.40;;;-4.20;93.10;;;;;;5066810;28;20191;-72
2022/01/24 04:07:26;;;;;;;1.03;0.63;;;-4.10;93.00;;;;;;5070174;28;20257;-72
2022/01/24 04:09:52;;;;;;;5.57;1.03;;;-4.10;92.80;;;;;;5070548;28;20772;-72
2022/01/24 04:12:21;;;;;;;2.63;2.40;;;-4.10;92.70;;;;;;5067970;28;20181;-72
2022/01/24 04:22:32;;;;;;;1.03;1.03;;;-4.10;92.40;;;;;;5071333;28;20188;-73
2022/01/24 04:25:00;;;;;;;4.00;1.50;;;-4.10;92.20;;;;;;5063639;28;20195;-73
2022/01/24 04:27:27;;;;;;;0.77;0.77;;;-4.10;92.00;;;;;;5071947;28;20283;-73
2022/01/24 04:29:52;;;;;;;1.63;1.17;;;-4.10;91.90;;;;;;5072350;28;20183;-73
2022/01/24 04:32:18;;;;;;;1.17;1.03;;;-4.10;91.70;;;;;;5065961;28;21958;-74
2022/01/24 04:34:44;;;;;;;1.17;1.07;;;-4.10;91.70;;;;;;5076551;28;20764;-74
2022/01/24 04:37:10;;;;;;;0.93;0.50;;;-4.20;91.60;;;;;;5073689;28;20546;-73
2022/01/24 04:39:36;;;;;;;0.77;0.77;;;-4.20;91.60;;;;;;5071895;28;20203;-73
2022/01/24 04:42:10;;;;;;;1.07;1.07;;;-4.20;91.50;;;;;;5079609;28;20245;-73
2022/01/24 04:45:06;;;;;;;0.80;0.80;;;-4.20;91.30;;;;;;5075794;28;20574;-73
2022/01/24 04:47:48;;;;;;;0.90;0.87;;;-4.20;91.20;;;;;;5071971;28;20770;-73
2022/01/24 04:50:40;;;;;;;0.83;0.77;;;;;;;;;;5075680;28;21005;-73
2022/01/24 04:53:14;;;;;;;1.13;1.07;;;-4.20;90.90;;;;;;5077856;28;20177;-73
2022/01/24 04:55:40;;;;;;;0.40;0.40;;;-4.30;90.60;;;;;;5073979;28;20839;-73
2022/01/24 04:58:07;;;;;;;3.67;1.13;;;-4.30;90.60;;;;;;5071980;28;20228;-73
2022/01/24 05:00:33;;;;;;;5.03;1.33;;;-4.40;90.50;;;;;;5065789;28;20948;-73
2022/01/24 05:02:59;;;;;;;0.57;0.57;;;-4.40;90.40;;;;;;5070439;28;20183;-73
2022/01/24 05:05:27;;;;;;;0.73;0.73;;;-4.50;90.30;;;;;;5072006;28;20730;-74
2022/01/24 05:07:53;;;;;;;1.93;0.83;;;-4.50;90.20;;;;;;5068283;28;20226;-73
2022/01/24 05:10:34;;;;;;;0.87;0.87;;;-4.60;90.10;;;;;;5068946;28;20273;-73
2022/01/24 05:24:07;;;;;;;1.00;1.00;;;-4.70;90.20;;;;;;5068454;28;20254;-73
2022/01/24 05:26:32;;;;;;;0.47;0.37;;;-4.80;90.40;;;;;;5071231;28;20734;-72
2022/01/24 05:28:58;;;;;;;0.53;0.50;;;-4.70;90.20;;;;;;5052633;28;20196;-72
2022/01/24 05:31:24;;;;;;;1.17;0.67;;;-4.70;90.20;;;;;;5072573;28;20185;-71
2022/01/24 05:33:50;;;;;;;1.17;1.00;;;-4.70;90.30;;;;;;5071058;28;20179;-71
2022/01/24 05:36:15;;;;;;;0.97;0.97;;;-4.70;90.20;;;;;;5066032;28;20275;-73
2022/01/24 05:38:41;;;;;;;1.80;1.70;;;-4.70;89.90;;;;;;5069044;28;20213;-72
2022/01/24 05:41:07;;;;;;;0.47;0.30;;;-4.70;89.80;;;;;;5067888;28;20193;-72
2022/01/24 05:43:35;;;;;;;0.90;0.90;;;-4.70;89.70;;;;;;5070752;28;20183;-72
2022/01/24 05:46:01;;;;;;;0.67;0.67;;;-4.70;89.50;;;;;;5067511;28;21168;-72
2022/01/24 05:48:26;;;;;;;0.93;0.63;;;-4.70;89.30;;;;;;5061116;28;20245;-72
2022/01/24 05:50:52;;;;;;;0.37;0.37;;;-4.70;88.90;;;;;;5070675;28;20197;-73
2022/01/24 05:53:18;;;;;;;1.93;0.77;;;-4.70;88.70;;;;;;5067500;28;20198;-74
2022/01/24 05:55:43;;;;;;;0.77;0.50;;;-4.70;88.50;;;;;;5074310;28;20218;-72
2022/01/24 05:58:09;;;;;;;0.30;0.30;;;-4.70;87.90;;;;;;5066407;28;20214;-72
2022/01/24 06:00:35;;;;;;;0.60;0.60;;;-4.60;87.80;;;;;;5065823;28;20198;-72
2022/01/24 06:03:00;;;;;;;1.20;0.57;;;-4.60;87.70;;;;;;5072561;28;20584;-73
2022/01/24 06:05:27;;;;;;;0.37;0.37;;;-4.60;87.70;;;;;;5077094;28;20171;-72
2022/01/24 06:07:54;;;;;;;0.20;0.20;;;-4.60;87.10;;;;;;5066467;28;20198;-72
2022/01/24 06:10:20;;;;;;;0.37;0.37;;;-4.50;87.30;;;;;;5070401;28;20943;-73
2022/01/24 06:12:46;;;;;;;0.60;0.60;;;-4.50;87.50;;;;;;5069007;28;20182;-73
2022/01/24 06:15:12;;;;;;;0.63;0.60;;;-4.50;87.50;;;;;;5073468;28;20271;-73
2022/01/24 06:17:38;;;;;;;3.53;0.57;;;-4.40;87.30;;;;;;5067227;28;20190;-73
2022/01/24 06:20:07;;;;;;;0.27;0.27;;;-4.40;87.00;;;;;;5069553;28;20994;-73
2022/01/24 06:22:34;;;;;;;0.50;0.50;;;-4.40;86.50;;;;;;5076668;28;20184;-73
2022/01/24 06:25:00;;;;;;;0.20;0.20;;;-4.40;86.50;;;;;;5069569;28;20235;-73
2022/01/24 06:27:26;;;;;;;0.93;0.57;;;-4.30;86.70;;;;;;5071148;28;20178;-73
2022/01/24 06:29:51;;;;;;;0.20;0.20;;;-4.30;86.70;;;;;;5074321;28;20204;-73
2022/01/24 06:32:17;;;;;;;0.20;0.20;;;-4.30;86.70;;;;;;5065805;28;20180;-73
2022/01/24 06:34:42;;;;;;;1.13;0.63;;;-4.20;86.30;;;;;;5066331;28;20678;-73
2022/01/24 06:37:08;;;;;;;0.97;0.50;;;-4.20;85.80;;;;;;5064049;28;20175;-73
2022/01/24 06:39:34;;;;;;;0.67;0.67;;;-4.20;85.90;;;;;;5068516;28;20223;-73
2022/01/24 06:42:11;;;;;;;0.30;0.30;;;-4.20;85.90;;;;;;5068151;28;20183;-71
2022/01/24 06:44:37;;;;;;;1.23;0.27;;;-4.20;85.10;;;;;;5064306;28;21017;-72
2022/01/24 06:47:04;;;;;;;0.20;0.20;;;-4.10;85.10;;;;;;5060812;28;20192;-72
2022/01/24 06:49:31;;;;;;;0.30;0.30;;;-4.10;85.20;;;;;;5067389;28;20242;-72
2022/01/24 06:51:56;;;;;;;0.50;0.50;;;-4.10;84.30;;;;;;5059495;28;20658;-72
2022/01/24 06:54:22;;;;;;;0.87;0.87;;;-4.10;83.30;;;;;;5070609;28;20241;-72
2022/01/24 06:56:48;;;;;;;0.67;0.50;;;-4.10;82.70;;;;;;5066960;28;20202;-72
2022/01/24 06:59:13;;;;;;;0.47;0.33;;;-4.10;83.00;;;;;;5065230;28;20223;-72
2022/01/24 07:01:39;;;;;;;0.30;0.30;;;-4.10;84.00;;;;;;5072070;28;20248;-72
2022/01/24 07:04:05;;;;;;;0.70;0.70;;;-4.00;84.60;;;;;;5061809;28;20185;-72
2022/01/24 07:06:30;;;;;;;0.67;0.37;;;-4.00;84.70;;;;;;5057280;28;20570;-72
2022/01/24 07:08:56;;;;;;;0.63;0.63;;;-3.90;84.40;;;;;;5062940;28;20323;-72
2022/01/24 07:11:22;;;;;;;0.27;0.27;;;-3.80;84.50;;;;;;5066843;28;20638;-72
2022/01/24 07:13:49;;;;;;;0.63;0.63;;;-3.70;84.60;;;;;;5063149;28;20188;-72
2022/01/24 07:16:16;;;;;;;0.20;0.20;;;-3.70;84.50;;;;;;5061831;28;20183;-72
2022/01/24 07:18:57;;;;;;;0.87;0.87;;;-3.60;84.40;;;;;;5060782;28;20212;-72
2022/01/24 07:21:23;;;;;;;0.57;0.57;;;-3.50;84.50;;;;;;5062054;28;20185;-72
2022/01/24 07:23:48;;;;;;;1.03;0.60;;;-3.50;84.20;;;;;;5059888;28;20185;-72
2022/01/24 07:26:14;;;;;;;1.40;0.90;;;-3.30;84.20;;;;;;5059885;28;20186;-72
2022/01/24 07:28:40;;;;;;;0.40;0.40;;;-3.20;84.10;;;;;;5058641;28;20181;-72
2022/01/24 07:31:06;;;;;;;0.63;0.63;;;-3.10;83.70;;;;;;5063397;28;20199;-72
2022/01/24 07:33:32;;;;;;;0.97;0.93;;;-3.00;83.60;;;;;;5054817;28;20182;-73
2022/01/24 07:36:00;;;;;;;1.37;1.23;;;-2.90;83.40;;;;;;5054495;28;20232;-73
2022/01/24 07:38:26;;;;;;;0.30;0.30;;;-2.80;82.30;;;;;;5066604;28;20296;-72
2022/01/24 07:40:54;;;;;;;0.57;0.57;;;-2.70;82.40;;;;;;5067952;28;20296;-72
2022/01/24 07:43:20;;;;;;;0.83;0.83;;;-2.60;81.90;;;;;;5065867;28;20179;-71
2022/01/24 07:45:48;;;;;;;1.17;1.17;;;-2.60;81.50;;;;;;5071394;28;20247;-71
2022/01/24 07:48:16;;;;;;;1.23;1.23;;;-2.50;81.60;;;;;;5071869;28;20174;-70
2022/01/24 07:50:46;;;;;;;0.73;0.70;;;-2.50;81.00;;;;;;5069177;28;20178;-70
2022/01/24 07:53:12;;;;;;;0.77;0.77;;;-2.40;80.80;;;;;;5062801;28;20179;-71
2022/01/24 07:55:39;;;;;;;1.30;1.27;;;-2.30;80.80;;;;;;5064793;28;20955;-70
2022/01/24 07:58:05;;;;;;;0.50;0.50;;;-2.30;80.60;;;;;;5072451;28;20238;-71
2022/01/24 08:00:32;;;;;;;0.50;0.50;;;-2.30;80.60;;;;;;5069955;28;20186;-71
2022/01/24 08:02:58;;;;;;;1.10;0.83;;;-2.20;80.10;;;;;;5061578;28;20773;-71
2022/01/24 08:05:24;;;;;;;1.37;1.10;;;-2.30;79.80;;;;;;5072157;28;20206;-73
2022/01/24 08:07:51;;;;;;;0.70;0.70;;;-2.40;80.10;;;;;;5070690;28;20274;-72
2022/01/24 08:10:18;;;;;;;0.67;0.67;;;-2.30;80.50;;;;;;5070418;28;20262;-74
2022/01/24 08:12:44;;;;;;;0.73;0.70;;;-2.30;80.50;;;;;;5070678;28;20320;-70
2022/01/24 08:15:14;;;;;;;1.33;0.70;;;-2.40;79.80;;;;;;5069428;28;20675;-70
2022/01/24 08:17:43;;;;;;;0.40;0.40;;;-2.50;79.90;;;;;;5066436;28;20179;-72
2022/01/24 08:20:10;;;;;;;0.50;0.50;;;-2.50;80.20;;;;;;5074172;28;20182;-72
2022/01/24 08:22:36;;;;;;;0.63;0.60;;;-2.40;80.20;;;;;;5066133;28;20174;-71
2022/01/24 08:25:04;;;;;;;1.00;0.93;;;-2.40;80.40;;;;;;5066279;28;20645;-71
2022/01/24 08:27:34;;;;;;;0.50;0.50;;;-2.30;80.70;;;;;;5064125;28;20202;-71
2022/01/24 08:30:00;;;;;;;0.60;0.57;;;-2.30;79.20;;;;;;5070430;28;20193;-69
2022/01/24 08:32:26;;;;;;;0.83;0.40;;;-2.20;78.80;;;;;;5072063;28;20187;-72
2022/01/24 08:34:52;;;;;;;1.03;1.03;;;-2.20;79.30;;;;;;5071315;28;20178;-72
2022/01/24 08:37:18;;;;;;;0.63;0.63;;;-2.20;79.50;;;;;;5075969;28;20277;-71
2022/01/24 08:39:44;;;;;;;0.67;0.67;;;-2.10;80.30;;;;;;5073231;28;21054;-72
2022/01/24 08:42:18;;;;;;;0.70;0.70;;;-2.00;79.40;;;;;;5064956;28;20185;-72
2022/01/24 08:47:27;;;;;;;0.67;0.67;;;-1.70;79.60;;;;;;5068777;28;20182;-72
2022/01/24 08:49:53;;;;;;;1.07;0.60;;;-1.60;79.80;;;;;;5071532;28;20183;-72
2022/01/24 08:52:19;;;;;;;5.47;1.37;;;-1.50;79.70;;;;;;5072386;28;20241;-72
2022/01/24 08:54:46;;;;;;;1.03;0.73;;;-1.40;79.60;;;;;;5075110;28;20374;-71
2022/01/24 08:57:13;;;;;;;1.07;1.03;;;-1.30;79.20;;;;;;5071298;28;20206;-71
2022/01/24 08:59:40;;;;;;;3.90;0.83;;;-1.20;78.30;;;;;;5063362;28;20209;-70
2022/01/24 09:02:07;;;;;;;0.87;0.87;;;-1.30;77.30;;;;;;5070868;28;20174;-70
2022/01/24 09:04:33;;;;;;;3.53;1.17;;;-1.40;77.20;;;;;;5068628;28;20178;-71
2022/01/24 09:07:03;;;;;;;1.57;1.23;;;-1.40;77.40;;;;;;5064350;28;20202;-72
2022/01/24 09:09:29;;;;;;;1.90;0.80;;;-1.30;78.10;;;;;;5061020;28;20245;-72
2022/01/24 09:11:55;;;;;;;0.53;0.50;;;-1.30;77.90;;;;;;5059620;28;20581;-71
2022/01/24 09:14:21;;;;;;;1.77;1.53;;;-1.30;78.00;;;;;;5070496;28;20180;-71
2022/01/24 09:16:47;;;;;;;1.27;1.17;;;-1.20;77.90;;;;;;5062722;28;20203;-71
2022/01/24 09:19:13;;;;;;;1.33;1.33;;;-1.20;77.80;;;;;;5053471;28;20247;-70
2022/01/24 09:21:39;;;;;;;1.43;1.43;;;-1.10;78.10;;;;;;5061705;28;20183;-72
2022/01/24 09:24:05;;;;;;;1.37;1.27;;;-1.10;76.20;;;;;;5069785;28;20713;-72
2022/01/24 09:26:31;;;;;;;1.43;1.43;;;-1.10;76.90;;;;;;5066720;28;20567;-70
2022/01/24 09:28:57;;;;;;;1.17;1.17;;;-1.00;77.50;;;;;;5070899;28;20302;-71
2022/01/24 09:31:23;;;;;;;1.90;1.47;;;-0.90;77.70;;;;;;5074625;28;20278;-72
2022/01/24 09:33:50;;;;;;;1.97;1.77;;;-0.70;78.00;;;;;;5077544;28;20644;-71
2022/01/24 09:36:16;;;;;;;1.03;0.80;;;-0.50;78.40;;;;;;5063562;28;20171;-70
2022/01/24 09:38:42;;;;;;;1.00;1.00;;;-0.20;77.30;;;;;;5067670;28;20221;-71
2022/01/24 09:41:10;;;;;;;2.73;1.30;;;0.00;76.60;;;;;;5077244;28;20222;-71
2022/01/24 09:43:35;;;;;;;0.53;0.53;;;0.30;74.70;;;;;;5066508;28;20174;-73
2022/01/24 09:46:02;;;;;;;1.13;1.13;;;0.30;74.70;;;;;;5072472;28;20179;-73
2022/01/24 09:48:29;;;;;;;1.00;1.00;;;0.40;74.00;;;;;;5069250;28;20603;-72
2022/01/24 09:50:54;;;;;;;2.73;1.67;;;0.60;74.40;;;;;;5072560;28;20726;-73
2022/01/24 09:53:22;;;;;;;1.90;1.80;;;0.70;73.40;;;;;;5072098;28;20183;-73
2022/01/24 09:55:48;;;;;;;1.37;1.13;;;0.80;72.40;;;;;;5071821;28;20266;-72
2022/01/24 09:58:14;;;;;;;2.67;1.33;;;0.90;72.40;;;;;;5066159;28;20207;-71
2022/01/24 10:00:40;;;;;;;2.23;2.03;;;0.80;72.00;;;;;;5071491;28;20722;-71
2022/01/24 10:03:08;;;;;;;1.33;1.23;;;0.80;70.50;;;;;;5073553;28;20714;-71
2022/01/24 10:05:37;;;;;;;2.20;2.03;;;0.60;70.00;;;;;;5069384;28;20175;-71
2022/01/24 10:08:12;;;;;;;1.13;0.97;;;0.50;69.70;;;;;;5066478;28;20197;-71
2022/01/24 10:10:46;;;;;;;2.17;1.70;;;0.30;69.30;;;;;;5065392;28;20358;-72
2022/01/24 10:19:01;;;;;;;2.00;1.30;;;1.00;72.80;;;;;;5064089;28;20214;-71
2022/01/24 10:21:27;;;;;;;2.93;1.43;;;2.20;73.10;;;;;;5068669;28;20218;-71
2022/01/24 10:23:55;;;;;;;2.30;1.70;;;2.90;70.20;;;;;;5070728;28;20184;-72
2022/01/24 10:26:23;;;;;;;2.83;2.10;;;3.10;67.40;;;;;;5063548;28;20198;-72
2022/01/24 10:28:49;;;;;;;1.57;1.47;;;3.20;65.20;;;;;;5069605;28;20179;-73
2022/01/24 10:31:17;;;;;;;1.73;1.20;;;3.00;64.80;;;;;;5066764;28;20205;-73
2022/01/24 10:33:51;;;;;;;1.80;1.70;;;3.00;65.20;;;;;;5061532;28;20182;-72
2022/01/24 10:36:43;;;;;;;1.67;1.57;;;3.20;65.90;;;;;;5068813;28;20243;-71
2022/01/24 10:39:16;;;;;;;1.67;1.30;;;3.50;65.00;;;;;;5073420;28;20721;-70
2022/01/24 10:41:57;;;;;;;1.20;1.17;;;3.90;64.60;;;;;;5069557;28;20194;-72
2022/01/24 10:44:34;;;;;;;3.07;1.60;;;4.60;65.10;;;;;;5069004;28;20319;-72
2022/01/24 10:47:31;;;;;;;17.23;2.20;;;5.60;63.90;;;;;;5068834;28;20217;-72
2022/01/24 10:50:06;;;;;;;1.50;1.40;;;6.30;59.20;;;;;;5008506;28;20196;-72
2022/01/24 10:52:33;;;;;;;2.03;1.80;;;6.50;59.00;;;;;;5009055;28;20191;-72
2022/01/24 10:55:17;;;;;;;1.77;1.67;;;6.40;58.00;;;;;;5013311;28;20232;-72
2022/01/24 10:57:46;;;;;;;2.97;2.13;;;6.20;58.10;;;;;;5008225;28;20235;-72
2022/01/24 11:00:22;;;;;;;3.07;2.13;;;6.00;58.20;;;;;;5009801;28;20188;-74
2022/01/24 11:02:53;;;;;;;1.90;1.77;;;5.60;57.70;;;;;;5008645;28;20259;-72
2022/01/24 11:05:24;;;;;;;2.97;1.83;;;5.30;57.90;;;;;;5007645;28;21432;-72
2022/01/24 11:07:51;;;;;;;6.17;2.07;;;5.00;58.60;;;;;;5013399;28;21037;-71
2022/01/24 11:10:18;;;;;;;1.53;1.43;;;4.60;58.20;;;;;;5008523;28;20585;-71
2022/01/24 11:12:44;;;;;;;1.30;1.23;;;4.10;58.60;;;;;;5003820;28;20224;-72
2022/01/24 11:15:12;;;;;;;10.43;1.47;;;3.70;58.70;;;;;;5015965;28;20262;-71
2022/01/24 11:17:40;;;;;;;1.43;1.33;;;3.30;60.00;;;;;;5012184;28;20184;-72
2022/01/24 11:20:08;;;;;;;1.87;1.77;;;2.80;60.30;;;;;;4989273;28;20221;-71
2022/01/24 11:22:40;;;;;;;1.20;1.20;;;2.50;61.10;;;;;;4999005;28;20173;-73
2022/01/24 11:25:08;;;;;;;1.80;1.70;;;2.40;61.40;;;;;;5002514;28;20173;-72
2022/01/24 11:27:35;;;;;;;2.33;2.07;;;2.70;62.70;;;;;;5076918;28;20726;-72
2022/01/24 11:30:31;;;;;;;1.40;1.40;;;3.30;62.80;;;;;;5070087;28;20189;-72
2022/01/24 11:33:04;;;;;;;1.83;1.73;;;4.00;62.40;;;;;;5072612;28;20629;-73
2022/01/24 11:35:50;;;;;;;1.93;1.60;;;4.90;62.40;;;;;;5076970;28;20189;-73
2022/01/24 11:38:44;;;;;;;1.93;1.70;;;5.30;59.60;;;;;;5068147;28;21661;-73
2022/01/24 11:41:21;;;;;;;1.93;1.83;;;5.30;58.30;;;;;;5073177;28;20223;-74
2022/01/24 11:43:59;;;;;;;2.10;1.87;;;5.50;58.50;;;;;;5070377;28;20171;-74
2022/01/24 11:46:52;;;;;;;2.73;1.53;;;6.00;58.00;;;;;;5063583;28;20178;-74
2022/01/24 11:49:26;;;;;;;1.93;1.83;;;6.60;57.50;;;;;;5069276;28;20182;-73
2022/01/24 11:52:01;;;;;;;2.33;1.73;;;7.30;56.30;;;;;;5072138;28;20214;-73
2022/01/24 11:54:43;;;;;;;1.70;1.60;;;8.00;55.40;;;;;;5071024;28;20660;-73
2022/01/24 11:57:22;;;;;;;1.93;1.83;;;8.60;53.20;;;;;;5073063;28;20186;-73
2022/01/24 11:59:50;;;;;;;2.17;1.93;;;8.60;51.30;;;;;;5071624;28;20610;-73
2022/01/24 12:02:25;;;;;;;3.63;1.73;;;8.40;52.00;;;;;;5059605;28;20416;-73
2022/01/24 12:04:56;;;;;;;2.00;1.90;;;8.50;51.70;;;;;;5061075;28;20182;-73
2022/01/24 12:07:27;;;;;;;1.73;1.63;;;8.70;52.10;;;;;;5061586;28;20187;-73
2022/01/24 12:09:55;;;;;;;2.30;1.80;;;8.90;52.00;;;;;;5063606;28;20186;-74
2022/01/24 12:12:36;;;;;;;2.23;2.07;;;8.90;51.80;;;;;;5060469;28;20294;-72
2022/01/24 12:15:04;;;;;;;3.47;2.80;;;9.10;50.80;;;;;;5057734;28;20192;-71
2022/01/24 12:17:48;;;;;;;2.27;2.10;;;8.90;50.90;;;;;;5057421;28;20743;-70
2022/01/24 12:20:32;;;;;;;2.47;2.27;;;8.50;50.60;;;;;;5067167;28;20187;-69
2022/01/24 12:22:59;;;;;;;5.47;2.07;;;7.80;50.00;;;;;;5068482;28;20812;-70
2022/01/24 12:26:05;;;;;;;2.20;2.07;;;7.20;50.40;;;;;;5061754;28;21549;-72
2022/01/24 12:28:33;;;;;;;3.17;1.90;;;6.50;51.30;;;;;;5062283;28;20278;-71
2022/01/24 12:31:06;;;;;;;2.30;2.20;;;5.70;51.60;;;;;;5064889;28;20175;-72
2022/01/24 12:33:39;;;;;;;1.43;1.43;;;5.10;52.20;;;;;;5060135;28;20704;-72
2022/01/24 12:36:11;;;;;;;2.20;1.60;;;4.30;52.80;;;;;;5065126;28;20178;-72
2022/01/24 12:38:48;;;;;;;3.03;1.47;;;3.80;54.10;;;;;;5066255;28;20203;-72
2022/01/24 12:41:23;;;;;;;1.03;1.03;;;3.50;55.10;;;;;;5068550;28;20183;-72
2022/01/24 12:46:29;;;;;;;1.73;1.63;;;3.00;56.10;;;;;;5056545;28;20187;-71
2022/01/24 12:48:56;;;;;;;1.83;1.73;;;2.60;56.80;;;;;;5059503;28;20187;-71
2022/01/24 12:51:27;;;;;;;2.33;2.17;;;2.20;58.50;;;;;;5066025;28;20186;-72
2022/01/24 12:53:53;;;;;;;4.10;2.17;;;1.90;59.60;;;;;;5071780;28;20560;-71
2022/01/24 12:56:24;;;;;;;2.13;1.70;;;1.70;59.70;;;;;;5078864;28;20194;-72
2022/01/24 12:58:51;;;;;;;1.60;1.50;;;1.40;60.60;;;;;;5075558;28;20214;-72
2022/01/24 13:01:21;;;;;;;4.80;1.60;;;1.30;61.40;;;;;;5079360;28;20575;-72
2022/01/24 13:03:55;;;;;;;1.07;1.07;;;1.10;61.00;;;;;;5080873;28;20641;-72
2022/01/24 13:06:22;;;;;;;3.00;2.23;;;1.10;61.00;;;;;;5073176;28;20202;-72
2022/01/24 13:08:53;;;;;;;1.37;1.27;;;1.00;61.50;;;;;;5070182;28;20179;-72
2022/01/24 13:11:19;;;;;;;2.00;1.13;;;1.00;62.10;;;;;;5074273;28;20175;-71
2022/01/24 13:14:11;;;;;;;1.60;1.50;;;1.00;61.70;;;;;;5080526;28;20175;-72
2022/01/24 13:22:32;;;;;;;1.10;1.10;;;0.90;60.40;;;;;;5064419;28;20181;-73
2022/01/24 13:25:20;;;;;;;1.50;1.37;;;0.70;60.20;;;;;;5070218;28;20179;-73
2022/01/24 13:27:51;;;;;;;1.30;1.20;;;0.40;61.20;;;;;;5065928;28;20199;-72
2022/01/24 13:30:26;;;;;;;1.70;1.60;;;0.50;62.30;;;;;;5068860;28;20183;-72
2022/01/24 13:32:58;;;;;;;0.80;0.80;;;0.80;62.80;;;;;;5067031;28;20235;-73
2022/01/24 13:35:39;;;;;;;1.63;1.53;;;1.20;63.40;;;;;;5074145;28;20233;-72
2022/01/24 13:38:15;;;;;;;1.37;1.27;;;1.70;63.10;;;;;;5067832;28;20640;-73
2022/01/24 13:40:53;;;;;;;2.10;1.87;;;2.10;62.10;;;;;;5067317;28;20189;-70
2022/01/24 13:43:45;;;;;;;1.40;1.40;;;2.30;60.80;;;;;;5074977;28;20183;-69
2022/01/24 13:46:23;;;;;;;1.50;1.40;;;2.40;58.80;;;;;;5067152;28;20898;-70
2022/01/24 13:48:58;;;;;;;1.50;1.40;;;2.40;59.20;;;;;;5073590;28;20186;-71
2022/01/24 13:51:46;;;;;;;2.23;2.03;;;2.40;59.00;;;;;;5074092;28;20719;-71
2022/01/24 13:54:13;;;;;;;1.60;1.50;;;2.20;58.60;;;;;;5068759;28;20188;-71
2022/01/24 13:56:44;;;;;;;2.10;1.87;;;1.90;58.30;;;;;;5078391;28;20263;-71
2022/01/24 13:59:10;;;;;;;1.77;1.70;;;1.70;58.70;;;;;;5069257;28;20221;-70
2022/01/24 14:01:52;;;;;;;2.43;2.07;;;1.50;58.70;;;;;;5066980;28;20665;-69
2022/01/24 14:04:49;;;;;;;1.50;1.50;;;1.20;59.20;;;;;;5067148;28;20180;-71
2022/01/24 14:07:19;;;;;;;1.70;1.60;;;0.90;59.40;;;;;;5020139;28;20494;-71
2022/01/24 14:09:50;;;;;;;2.67;1.83;;;0.60;60.00;;;;;;5040641;28;20184;-70
2022/01/24 14:12:20;;;;;;;2.20;1.60;;;0.30;60.70;;;;;;5043643;28;20723;-70
2022/01/24 14:19:43;;;;;;;2.50;2.03;;;-0.40;63.00;;;;;;5041959;28;20273;-70
2022/01/24 14:22:11;;;;;;;2.20;1.53;;;-0.60;62.70;;;;;;5023478;28;20214;-72
2022/01/24 14:24:49;;;;;;;2.77;1.67;;;-0.80;63.60;;;;;;5042312;28;20298;-72
2022/01/24 14:27:45;;;;;;;1.33;1.33;;;-0.90;64.00;;;;;;5022998;28;20172;-71
2022/01/24 14:30:13;;;;;;;1.57;1.23;;;-1.00;63.80;;;;;;5040023;28;20183;-70
2022/01/24 14:32:58;;;;;;;4.13;1.43;;;-1.10;64.10;;;;;;5037607;28;20183;-71
2022/01/24 14:35:24;;;;;;;1.43;1.07;;;-1.20;64.20;;;;;;5042669;28;20183;-70
2022/01/24 14:37:53;;;;;;;1.80;1.63;;;-1.30;64.20;;;;;;5041558;28;20192;-72
2022/01/24 14:40:33;;;;;;;2.10;1.30;;;-1.30;64.70;;;;;;5042935;28;20242;-71
2022/01/24 14:44:53;;;;;;;6.43;0.93;;;-1.50;64.70;;;;;;5048644;28;20214;-71
2022/01/24 14:45:45;;;;;;;2.33;2.00;;;-1.60;65.40;;;;;;5075708;28;20585;-71
2022/01/24 14:48:11;;;;;;;2.17;1.40;;;-1.70;65.80;;;;;;5076946;28;20182;-71
2022/01/24 14:50:38;;;;;;;1.30;1.20;;;-1.80;65.70;;;;;;5071310;28;20186;-71
2022/01/24 14:53:07;;;;;;;2.83;1.17;;;-1.90;66.40;;;;;;5067375;28;20179;-70
2022/01/24 14:55:34;;;;;;;0.93;0.93;;;-2.00;67.30;;;;;;5063238;28;20262;-72